sensor_id;sensor_type;location;lat;lon;timestamp;temperature;humidity
612;DHT22;293;53.888;11.464;2022-08-21T00:02:03;17.50;99.90
612;DHT22;293;53.888;11.464;2022-08-21T00:04:31;17.40;99.90
612;DHT22;293;53.888;11.464;2022-08-21T00:06:58;17.30;99.90
612;DHT22;293;53.888;11.464;2022-08-21T00:09:25;17.30;99.90
612;DHT22;293;53.888;11.464;2022-08-21T00:11:53;17.30;99.90
612;DHT22;293;53.888;11.464;2022-08-21T00:14:20;17.20;99.90
612;DHT22;293;53.888;11.464;2022-08-21T00:16:47;17.20;99.90
612;DHT22;293;53.888;11.464;2022-08-21T00:19:14;17.20;99.90
612;DHT22;293;53.888;11.464;2022-08-21T00:21:41;17.20;99.90
612;DHT22;293;53.888;11.464;2022-08-21T00:24:08;17.20;99.90
612;DHT22;293;53.888;11.464;2022-08-21T00:26:35;17.20;99.90
612;DHT22;293;53.888;11.464;2022-08-21T00:29:03;17.10;99.90
612;DHT22;293;53.888;11.464;2022-08-21T00:31:30;17.10;99.90
612;DHT22;293;53.888;11.464;2022-08-21T00:33:57;17.00;99.90
612;DHT22;293;53.888;11.464;2022-08-21T00:36:24;17.00;99.90
612;DHT22;293;53.888;11.464;2022-08-21T00:38:51;17.00;99.90
612;DHT22;293;53.888;11.464;2022-08-21T00:41:18;16.90;99.90
612;DHT22;293;53.888;11.464;2022-08-21T00:43:45;16.90;99.90
612;DHT22;293;53.888;11.464;2022-08-21T00:46:13;16.90;99.90
612;DHT22;293;53.888;11.464;2022-08-21T00:48:40;16.90;99.90
612;DHT22;293;53.888;11.464;2022-08-21T00:51:17;16.80;99.90
612;DHT22;293;53.888;11.464;2022-08-21T00:53:49;16.80;99.90
612;DHT22;293;53.888;11.464;2022-08-21T00:56:19;16.70;99.90
612;DHT22;293;53.888;11.464;2022-08-21T00:58:47;16.70;99.90
612;DHT22;293;53.888;11.464;2022-08-21T01:01:16;16.70;99.90
612;DHT22;293;53.888;11.464;2022-08-21T01:03:43;16.60;99.90
612;DHT22;293;53.888;11.464;2022-08-21T01:06:10;16.60;99.90
612;DHT22;293;53.888;11.464;2022-08-21T01:08:37;16.60;99.90
612;DHT22;293;53.888;11.464;2022-08-21T01:11:04;16.60;99.90
612;DHT22;293;53.888;11.464;2022-08-21T01:13:34;16.50;99.90
612;DHT22;293;53.888;11.464;2022-08-21T01:16:08;16.50;99.90
612;DHT22;293;53.888;11.464;2022-08-21T01:18:37;16.50;99.90
612;DHT22;293;53.888;11.464;2022-08-21T01:21:08;16.40;99.90
612;DHT22;293;53.888;11.464;2022-08-21T01:23:37;16.40;99.90
612;DHT22;293;53.888;11.464;2022-08-21T01:26:05;16.40;99.90
612;DHT22;293;53.888;11.464;2022-08-21T01:28:37;16.40;99.90
612;DHT22;293;53.888;11.464;2022-08-21T01:31:07;16.30;99.90
612;DHT22;293;53.888;11.464;2022-08-21T01:33:35;16.30;99.90
612;DHT22;293;53.888;11.464;2022-08-21T01:36:02;16.30;99.90
612;DHT22;293;53.888;11.464;2022-08-21T01:38:30;16.30;99.90
612;DHT22;293;53.888;11.464;2022-08-21T01:40:58;16.30;99.90
612;DHT22;293;53.888;11.464;2022-08-21T01:43:25;16.30;99.90
612;DHT22;293;53.888;11.464;2022-08-21T01:45:51;16.20;99.90
612;DHT22;293;53.888;11.464;2022-08-21T01:48:18;16.20;99.90
612;DHT22;293;53.888;11.464;2022-08-21T01:50:45;16.20;99.90
612;DHT22;293;53.888;11.464;2022-08-21T01:53:12;16.20;99.90
612;DHT22;293;53.888;11.464;2022-08-21T01:55:42;16.20;99.90
612;DHT22;293;53.888;11.464;2022-08-21T01:58:09;16.10;99.90
612;DHT22;293;53.888;11.464;2022-08-21T02:00:36;16.10;99.90
612;DHT22;293;53.888;11.464;2022-08-21T02:03:03;16.10;99.90
612;DHT22;293;53.888;11.464;2022-08-21T02:05:30;16.00;99.90
612;DHT22;293;53.888;11.464;2022-08-21T02:07:57;16.00;99.90
612;DHT22;293;53.888;11.464;2022-08-21T02:10:28;16.00;99.90
612;DHT22;293;53.888;11.464;2022-08-21T02:12:57;16.00;99.90
612;DHT22;293;53.888;11.464;2022-08-21T02:15:25;16.00;99.90
612;DHT22;293;53.888;11.464;2022-08-21T02:17:55;15.90;99.90
612;DHT22;293;53.888;11.464;2022-08-21T02:20:25;15.90;99.90
612;DHT22;293;53.888;11.464;2022-08-21T02:22:53;16.00;99.90
612;DHT22;293;53.888;11.464;2022-08-21T02:25:21;15.90;99.90
612;DHT22;293;53.888;11.464;2022-08-21T02:27:49;15.90;99.90
612;DHT22;293;53.888;11.464;2022-08-21T02:30:21;15.90;99.90
612;DHT22;293;53.888;11.464;2022-08-21T02:32:48;15.90;99.90
612;DHT22;293;53.888;11.464;2022-08-21T02:35:15;15.80;99.90
612;DHT22;293;53.888;11.464;2022-08-21T02:37:44;15.80;99.90
612;DHT22;293;53.888;11.464;2022-08-21T02:40:11;15.70;99.90
612;DHT22;293;53.888;11.464;2022-08-21T02:42:38;15.70;99.90
612;DHT22;293;53.888;11.464;2022-08-21T02:45:06;15.70;99.90
612;DHT22;293;53.888;11.464;2022-08-21T02:47:34;15.60;99.90
612;DHT22;293;53.888;11.464;2022-08-21T02:50:02;15.60;99.90
612;DHT22;293;53.888;11.464;2022-08-21T02:52:29;15.60;99.90
612;DHT22;293;53.888;11.464;2022-08-21T02:54:55;15.60;99.90
612;DHT22;293;53.888;11.464;2022-08-21T02:57:22;15.50;99.90
612;DHT22;293;53.888;11.464;2022-08-21T02:59:49;15.50;99.90
612;DHT22;293;53.888;11.464;2022-08-21T03:02:16;15.50;99.90
612;DHT22;293;53.888;11.464;2022-08-21T03:04:44;15.50;99.90
612;DHT22;293;53.888;11.464;2022-08-21T03:07:11;15.40;99.90
612;DHT22;293;53.888;11.464;2022-08-21T03:09:38;15.40;99.90
612;DHT22;293;53.888;11.464;2022-08-21T03:12:05;15.40;99.90
612;DHT22;293;53.888;11.464;2022-08-21T03:14:32;15.40;99.90
612;DHT22;293;53.888;11.464;2022-08-21T03:16:59;15.40;99.90
612;DHT22;293;53.888;11.464;2022-08-21T03:19:25;15.40;99.90
612;DHT22;293;53.888;11.464;2022-08-21T03:21:54;15.40;99.90
612;DHT22;293;53.888;11.464;2022-08-21T03:24:21;15.40;99.90
612;DHT22;293;53.888;11.464;2022-08-21T03:26:47;15.40;99.90
612;DHT22;293;53.888;11.464;2022-08-21T03:29:14;15.30;99.90
612;DHT22;293;53.888;11.464;2022-08-21T03:31:41;15.40;99.90
612;DHT22;293;53.888;11.464;2022-08-21T03:34:08;15.30;99.90
612;DHT22;293;53.888;11.464;2022-08-21T03:36:35;15.20;99.90
612;DHT22;293;53.888;11.464;2022-08-21T03:39:03;15.20;99.90
612;DHT22;293;53.888;11.464;2022-08-21T03:41:31;15.20;99.90
612;DHT22;293;53.888;11.464;2022-08-21T03:43:57;15.10;99.90
612;DHT22;293;53.888;11.464;2022-08-21T03:46:24;15.10;99.90
612;DHT22;293;53.888;11.464;2022-08-21T03:48:51;15.10;99.90
612;DHT22;293;53.888;11.464;2022-08-21T03:51:18;15.10;99.90
612;DHT22;293;53.888;11.464;2022-08-21T03:53:45;15.10;99.90
612;DHT22;293;53.888;11.464;2022-08-21T03:56:13;15.00;99.90
612;DHT22;293;53.888;11.464;2022-08-21T03:58:41;15.00;99.90
612;DHT22;293;53.888;11.464;2022-08-21T04:01:09;15.00;99.90
612;DHT22;293;53.888;11.464;2022-08-21T04:03:37;15.00;99.90
612;DHT22;293;53.888;11.464;2022-08-21T04:06:04;15.00;99.90
612;DHT22;293;53.888;11.464;2022-08-21T04:08:31;15.00;99.90
612;DHT22;293;53.888;11.464;2022-08-21T04:10:58;15.10;99.90
612;DHT22;293;53.888;11.464;2022-08-21T04:13:27;15.10;99.90
612;DHT22;293;53.888;11.464;2022-08-21T04:15:54;15.10;99.90
612;DHT22;293;53.888;11.464;2022-08-21T04:18:21;15.10;99.90
612;DHT22;293;53.888;11.464;2022-08-21T04:20:50;15.10;99.90
612;DHT22;293;53.888;11.464;2022-08-21T04:23:18;15.20;99.90
612;DHT22;293;53.888;11.464;2022-08-21T04:25:45;15.30;99.90
612;DHT22;293;53.888;11.464;2022-08-21T04:28:11;15.40;99.90
612;DHT22;293;53.888;11.464;2022-08-21T04:30:40;15.50;99.90
612;DHT22;293;53.888;11.464;2022-08-21T04:33:07;15.60;99.90
612;DHT22;293;53.888;11.464;2022-08-21T04:35:33;15.60;99.90
612;DHT22;293;53.888;11.464;2022-08-21T04:38:00;15.70;99.90
612;DHT22;293;53.888;11.464;2022-08-21T04:40:28;15.70;99.90
612;DHT22;293;53.888;11.464;2022-08-21T04:42:58;15.90;99.90
612;DHT22;293;53.888;11.464;2022-08-21T04:45:30;15.90;99.90
612;DHT22;293;53.888;11.464;2022-08-21T04:48:00;16.00;99.90
612;DHT22;293;53.888;11.464;2022-08-21T04:50:31;16.00;99.90
612;DHT22;293;53.888;11.464;2022-08-21T04:52:58;16.10;99.90
612;DHT22;293;53.888;11.464;2022-08-21T04:55:26;16.10;99.90
612;DHT22;293;53.888;11.464;2022-08-21T04:57:54;16.20;99.90
612;DHT22;293;53.888;11.464;2022-08-21T05:00:23;16.30;99.90
612;DHT22;293;53.888;11.464;2022-08-21T05:02:51;16.40;99.90
612;DHT22;293;53.888;11.464;2022-08-21T05:05:23;16.50;99.90
612;DHT22;293;53.888;11.464;2022-08-21T05:07:51;16.70;99.90
612;DHT22;293;53.888;11.464;2022-08-21T05:10:19;16.90;99.90
612;DHT22;293;53.888;11.464;2022-08-21T05:12:47;17.10;99.90
612;DHT22;293;53.888;11.464;2022-08-21T05:15:14;17.40;99.90
612;DHT22;293;53.888;11.464;2022-08-21T05:17:43;17.70;99.90
612;DHT22;293;53.888;11.464;2022-08-21T05:20:11;18.00;99.90
612;DHT22;293;53.888;11.464;2022-08-21T05:22:39;18.30;99.90
612;DHT22;293;53.888;11.464;2022-08-21T05:25:09;18.70;99.90
612;DHT22;293;53.888;11.464;2022-08-21T05:27:36;19.10;99.90
612;DHT22;293;53.888;11.464;2022-08-21T05:30:03;19.50;99.90
612;DHT22;293;53.888;11.464;2022-08-21T05:32:30;19.90;99.10
612;DHT22;293;53.888;11.464;2022-08-21T05:34:57;20.40;98.50
612;DHT22;293;53.888;11.464;2022-08-21T05:37:24;21.10;98.10
612;DHT22;293;53.888;11.464;2022-08-21T05:39:52;22.00;96.90
612;DHT22;293;53.888;11.464;2022-08-21T05:42:19;23.20;95.10
612;DHT22;293;53.888;11.464;2022-08-21T05:44:46;24.50;93.00
612;DHT22;293;53.888;11.464;2022-08-21T05:47:13;25.90;91.10
612;DHT22;293;53.888;11.464;2022-08-21T05:49:40;27.00;87.40
612;DHT22;293;53.888;11.464;2022-08-21T05:52:07;28.00;83.20
612;DHT22;293;53.888;11.464;2022-08-21T05:54:36;28.80;79.90
612;DHT22;293;53.888;11.464;2022-08-21T05:57:05;29.30;76.80
612;DHT22;293;53.888;11.464;2022-08-21T05:59:33;29.50;75.10
612;DHT22;293;53.888;11.464;2022-08-21T06:02:01;29.60;74.00
612;DHT22;293;53.888;11.464;2022-08-21T06:04:28;29.70;73.50
612;DHT22;293;53.888;11.464;2022-08-21T06:06:55;30.20;73.30
612;DHT22;293;53.888;11.464;2022-08-21T06:09:22;30.70;72.50
612;DHT22;293;53.888;11.464;2022-08-21T06:11:49;31.20;70.40
612;DHT22;293;53.888;11.464;2022-08-21T06:14:17;31.70;69.40
612;DHT22;293;53.888;11.464;2022-08-21T06:16:44;32.10;68.00
612;DHT22;293;53.888;11.464;2022-08-21T06:19:11;32.30;66.80
612;DHT22;293;53.888;11.464;2022-08-21T06:21:38;32.60;65.90
612;DHT22;293;53.888;11.464;2022-08-21T06:24:05;32.90;64.50
612;DHT22;293;53.888;11.464;2022-08-21T06:26:32;33.10;63.60
612;DHT22;293;53.888;11.464;2022-08-21T06:28:59;33.10;63.30
612;DHT22;293;53.888;11.464;2022-08-21T06:31:28;33.10;63.00
612;DHT22;293;53.888;11.464;2022-08-21T06:33:55;32.80;63.00
612;DHT22;293;53.888;11.464;2022-08-21T06:36:22;32.10;64.50
612;DHT22;293;53.888;11.464;2022-08-21T06:38:49;31.30;65.40
612;DHT22;293;53.888;11.464;2022-08-21T06:41:16;30.30;66.40
612;DHT22;293;53.888;11.464;2022-08-21T06:43:43;29.30;67.40
612;DHT22;293;53.888;11.464;2022-08-21T06:46:10;28.40;69.50
612;DHT22;293;53.888;11.464;2022-08-21T06:48:38;27.60;71.80
612;DHT22;293;53.888;11.464;2022-08-21T06:51:05;26.90;73.70
612;DHT22;293;53.888;11.464;2022-08-21T06:53:33;26.30;75.80
612;DHT22;293;53.888;11.464;2022-08-21T06:56:00;25.80;77.60
612;DHT22;293;53.888;11.464;2022-08-21T06:58:26;25.40;79.00
612;DHT22;293;53.888;11.464;2022-08-21T07:00:53;25.00;79.70
612;DHT22;293;53.888;11.464;2022-08-21T07:03:23;24.60;80.80
612;DHT22;293;53.888;11.464;2022-08-21T07:05:52;24.30;82.10
612;DHT22;293;53.888;11.464;2022-08-21T07:08:19;24.00;82.70
612;DHT22;293;53.888;11.464;2022-08-21T07:10:47;23.80;84.20
612;DHT22;293;53.888;11.464;2022-08-21T07:13:15;23.50;84.70
612;DHT22;293;53.888;11.464;2022-08-21T07:15:42;23.30;85.00
612;DHT22;293;53.888;11.464;2022-08-21T07:18:10;23.10;85.10
612;DHT22;293;53.888;11.464;2022-08-21T07:20:37;22.90;85.90
612;DHT22;293;53.888;11.464;2022-08-21T07:23:09;22.80;86.30
612;DHT22;293;53.888;11.464;2022-08-21T07:25:37;22.80;87.10
612;DHT22;293;53.888;11.464;2022-08-21T07:28:04;22.80;87.30
612;DHT22;293;53.888;11.464;2022-08-21T07:30:31;22.70;87.20
612;DHT22;293;53.888;11.464;2022-08-21T07:32:58;22.60;87.50
612;DHT22;293;53.888;11.464;2022-08-21T07:35:25;22.50;87.30
612;DHT22;293;53.888;11.464;2022-08-21T07:37:53;22.50;87.60
612;DHT22;293;53.888;11.464;2022-08-21T07:40:22;22.50;87.20
612;DHT22;293;53.888;11.464;2022-08-21T07:42:49;22.40;86.90
612;DHT22;293;53.888;11.464;2022-08-21T07:45:18;22.40;86.90
612;DHT22;293;53.888;11.464;2022-08-21T07:47:46;22.40;86.20
612;DHT22;293;53.888;11.464;2022-08-21T07:50:14;22.40;85.00
612;DHT22;293;53.888;11.464;2022-08-21T07:52:41;22.50;85.50
612;DHT22;293;53.888;11.464;2022-08-21T07:55:10;22.50;86.00
612;DHT22;293;53.888;11.464;2022-08-21T07:57:39;22.50;86.00
612;DHT22;293;53.888;11.464;2022-08-21T08:00:10;22.50;85.90
612;DHT22;293;53.888;11.464;2022-08-21T08:02:39;22.50;85.60
612;DHT22;293;53.888;11.464;2022-08-21T08:05:08;22.50;85.00
612;DHT22;293;53.888;11.464;2022-08-21T08:07:36;22.40;84.50
612;DHT22;293;53.888;11.464;2022-08-21T08:10:04;22.40;83.70
612;DHT22;293;53.888;11.464;2022-08-21T08:12:32;22.40;84.20
612;DHT22;293;53.888;11.464;2022-08-21T08:15:01;22.50;84.80
612;DHT22;293;53.888;11.464;2022-08-21T08:17:28;22.60;85.50
612;DHT22;293;53.888;11.464;2022-08-21T08:19:57;22.60;84.90
612;DHT22;293;53.888;11.464;2022-08-21T08:22:26;22.70;85.00
612;DHT22;293;53.888;11.464;2022-08-21T08:24:54;22.70;84.70
612;DHT22;293;53.888;11.464;2022-08-21T08:27:21;22.70;84.40
612;DHT22;293;53.888;11.464;2022-08-21T08:29:49;22.70;85.00
612;DHT22;293;53.888;11.464;2022-08-21T08:32:17;22.60;84.90
612;DHT22;293;53.888;11.464;2022-08-21T08:34:44;22.70;85.20
612;DHT22;293;53.888;11.464;2022-08-21T08:37:12;22.70;84.80
612;DHT22;293;53.888;11.464;2022-08-21T08:39:39;22.80;85.70
612;DHT22;293;53.888;11.464;2022-08-21T08:42:09;22.90;85.30
612;DHT22;293;53.888;11.464;2022-08-21T08:44:36;23.00;85.00
612;DHT22;293;53.888;11.464;2022-08-21T08:47:04;23.10;85.00
612;DHT22;293;53.888;11.464;2022-08-21T08:49:37;23.20;84.20
612;DHT22;293;53.888;11.464;2022-08-21T08:52:11;23.20;84.10
612;DHT22;293;53.888;11.464;2022-08-21T08:54:44;23.20;83.80
612;DHT22;293;53.888;11.464;2022-08-21T08:57:17;23.20;84.00
612;DHT22;293;53.888;11.464;2022-08-21T08:59:48;23.20;84.30
612;DHT22;293;53.888;11.464;2022-08-21T09:02:16;23.30;83.70
612;DHT22;293;53.888;11.464;2022-08-21T09:04:47;23.40;84.30
612;DHT22;293;53.888;11.464;2022-08-21T09:07:20;23.30;83.80
612;DHT22;293;53.888;11.464;2022-08-21T09:10:06;23.40;84.10
612;DHT22;293;53.888;11.464;2022-08-21T09:12:45;23.40;84.30
612;DHT22;293;53.888;11.464;2022-08-21T09:15:23;23.50;82.90
612;DHT22;293;53.888;11.464;2022-08-21T09:18:04;23.60;82.30
612;DHT22;293;53.888;11.464;2022-08-21T09:20:48;23.70;83.30
612;DHT22;293;53.888;11.464;2022-08-21T09:23:27;23.90;83.70
612;DHT22;293;53.888;11.464;2022-08-21T09:26:04;23.90;82.20
612;DHT22;293;53.888;11.464;2022-08-21T09:28:34;24.10;82.40
612;DHT22;293;53.888;11.464;2022-08-21T09:31:04;24.30;82.00
612;DHT22;293;53.888;11.464;2022-08-21T09:33:32;24.50;80.70
612;DHT22;293;53.888;11.464;2022-08-21T09:36:00;24.70;80.90
612;DHT22;293;53.888;11.464;2022-08-21T09:38:29;24.80;79.10
612;DHT22;293;53.888;11.464;2022-08-21T09:41:01;25.00;78.80
612;DHT22;293;53.888;11.464;2022-08-21T09:43:29;25.10;78.20
612;DHT22;293;53.888;11.464;2022-08-21T09:46:08;25.20;77.90
612;DHT22;293;53.888;11.464;2022-08-21T09:48:42;25.30;77.70
612;DHT22;293;53.888;11.464;2022-08-21T09:51:13;25.40;78.10
612;DHT22;293;53.888;11.464;2022-08-21T09:53:44;25.40;76.90
612;DHT22;293;53.888;11.464;2022-08-21T09:56:31;25.30;76.20
612;DHT22;293;53.888;11.464;2022-08-21T09:59:20;25.30;76.40
612;DHT22;293;53.888;11.464;2022-08-21T10:01:52;25.40;76.90
612;DHT22;293;53.888;11.464;2022-08-21T10:04:22;25.50;76.40
612;DHT22;293;53.888;11.464;2022-08-21T10:06:51;25.60;77.30
612;DHT22;293;53.888;11.464;2022-08-21T10:09:19;25.70;76.50
612;DHT22;293;53.888;11.464;2022-08-21T10:11:52;25.80;75.90
612;DHT22;293;53.888;11.464;2022-08-21T10:14:37;25.70;75.00
612;DHT22;293;53.888;11.464;2022-08-21T10:17:14;25.80;75.40
612;DHT22;293;53.888;11.464;2022-08-21T10:19:46;25.90;74.90
612;DHT22;293;53.888;11.464;2022-08-21T10:22:24;25.90;74.20
612;DHT22;293;53.888;11.464;2022-08-21T10:25:00;25.70;74.60
612;DHT22;293;53.888;11.464;2022-08-21T10:27:36;25.40;74.20
612;DHT22;293;53.888;11.464;2022-08-21T10:30:07;25.20;75.20
612;DHT22;293;53.888;11.464;2022-08-21T10:32:51;25.20;75.90
612;DHT22;293;53.888;11.464;2022-08-21T10:35:23;25.20;75.90
612;DHT22;293;53.888;11.464;2022-08-21T10:38:08;25.30;75.90
612;DHT22;293;53.888;11.464;2022-08-21T10:40:40;25.40;76.00
612;DHT22;293;53.888;11.464;2022-08-21T10:43:18;25.60;76.80
612;DHT22;293;53.888;11.464;2022-08-21T10:45:55;25.70;76.00
612;DHT22;293;53.888;11.464;2022-08-21T10:48:29;25.60;73.60
612;DHT22;293;53.888;11.464;2022-08-21T10:51:02;25.60;74.70
612;DHT22;293;53.888;11.464;2022-08-21T10:53:44;25.50;74.10
612;DHT22;293;53.888;11.464;2022-08-21T10:56:16;25.30;73.00
612;DHT22;293;53.888;11.464;2022-08-21T10:58:50;25.20;73.50
612;DHT22;293;53.888;11.464;2022-08-21T11:01:25;25.00;74.40
612;DHT22;293;53.888;11.464;2022-08-21T11:04:03;24.90;74.40
612;DHT22;293;53.888;11.464;2022-08-21T11:06:32;24.90;75.50
612;DHT22;293;53.888;11.464;2022-08-21T11:09:06;24.70;74.30
612;DHT22;293;53.888;11.464;2022-08-21T11:11:38;24.70;75.10
612;DHT22;293;53.888;11.464;2022-08-21T11:14:13;24.70;75.00
612;DHT22;293;53.888;11.464;2022-08-21T11:16:45;24.70;75.50
612;DHT22;293;53.888;11.464;2022-08-21T11:19:19;24.80;75.30
612;DHT22;293;53.888;11.464;2022-08-21T11:21:56;24.90;76.00
612;DHT22;293;53.888;11.464;2022-08-21T11:24:30;25.00;76.40
612;DHT22;293;53.888;11.464;2022-08-21T11:27:03;25.10;75.00
612;DHT22;293;53.888;11.464;2022-08-21T11:29:34;25.30;75.00
612;DHT22;293;53.888;11.464;2022-08-21T11:32:23;25.50;74.90
612;DHT22;293;53.888;11.464;2022-08-21T11:34:56;25.50;73.70
612;DHT22;293;53.888;11.464;2022-08-21T11:37:41;25.60;74.10
612;DHT22;293;53.888;11.464;2022-08-21T11:40:22;25.60;73.60
612;DHT22;293;53.888;11.464;2022-08-21T11:42:57;25.70;73.40
612;DHT22;293;53.888;11.464;2022-08-21T11:45:35;25.70;72.90
612;DHT22;293;53.888;11.464;2022-08-21T11:48:09;25.80;73.50
612;DHT22;293;53.888;11.464;2022-08-21T11:50:40;25.80;73.00
612;DHT22;293;53.888;11.464;2022-08-21T11:53:12;25.70;72.90
612;DHT22;293;53.888;11.464;2022-08-21T11:55:46;25.70;73.30
612;DHT22;293;53.888;11.464;2022-08-21T11:58:17;25.60;72.80
612;DHT22;293;53.888;11.464;2022-08-21T12:00:48;25.60;73.10
612;DHT22;293;53.888;11.464;2022-08-21T12:03:24;25.60;72.90
612;DHT22;293;53.888;11.464;2022-08-21T12:05:54;25.50;73.20
612;DHT22;293;53.888;11.464;2022-08-21T12:08:32;25.40;73.20
612;DHT22;293;53.888;11.464;2022-08-21T12:11:04;25.40;73.60
612;DHT22;293;53.888;11.464;2022-08-21T12:13:33;25.50;72.80
612;DHT22;293;53.888;11.464;2022-08-21T12:16:08;25.50;72.40
612;DHT22;293;53.888;11.464;2022-08-21T12:18:36;25.50;73.20
612;DHT22;293;53.888;11.464;2022-08-21T12:21:19;25.70;73.80
612;DHT22;293;53.888;11.464;2022-08-21T12:23:49;25.90;72.50
612;DHT22;293;53.888;11.464;2022-08-21T12:26:31;26.10;72.40
612;DHT22;293;53.888;11.464;2022-08-21T12:29:12;26.20;71.30
612;DHT22;293;53.888;11.464;2022-08-21T12:32:18;26.30;72.10
612;DHT22;293;53.888;11.464;2022-08-21T12:34:49;26.50;71.60
612;DHT22;293;53.888;11.464;2022-08-21T12:37:22;26.80;72.40
612;DHT22;293;53.888;11.464;2022-08-21T12:39:52;26.90;71.10
612;DHT22;293;53.888;11.464;2022-08-21T12:42:24;27.10;71.00
612;DHT22;293;53.888;11.464;2022-08-21T12:44:55;27.30;70.20
612;DHT22;293;53.888;11.464;2022-08-21T12:47:27;27.40;70.40
612;DHT22;293;53.888;11.464;2022-08-21T12:50:01;27.50;70.50
612;DHT22;293;53.888;11.464;2022-08-21T12:52:32;27.60;68.90
612;DHT22;293;53.888;11.464;2022-08-21T12:55:00;27.60;69.00
612;DHT22;293;53.888;11.464;2022-08-21T12:57:30;27.70;69.10
612;DHT22;293;53.888;11.464;2022-08-21T12:59:59;27.70;69.60
612;DHT22;293;53.888;11.464;2022-08-21T13:02:29;27.80;69.30
612;DHT22;293;53.888;11.464;2022-08-21T13:04:58;27.80;68.60
612;DHT22;293;53.888;11.464;2022-08-21T13:07:29;27.70;67.50
612;DHT22;293;53.888;11.464;2022-08-21T13:09:59;27.60;68.20
612;DHT22;293;53.888;11.464;2022-08-21T13:12:29;27.50;69.20
612;DHT22;293;53.888;11.464;2022-08-21T13:14:59;27.30;69.20
612;DHT22;293;53.888;11.464;2022-08-21T13:17:32;27.20;69.60
612;DHT22;293;53.888;11.464;2022-08-21T13:20:05;27.10;69.50
612;DHT22;293;53.888;11.464;2022-08-21T13:22:40;27.10;69.10
612;DHT22;293;53.888;11.464;2022-08-21T13:25:10;27.20;69.90
612;DHT22;293;53.888;11.464;2022-08-21T13:27:39;27.40;68.90
612;DHT22;293;53.888;11.464;2022-08-21T13:30:11;27.40;68.70
612;DHT22;293;53.888;11.464;2022-08-21T13:32:42;27.50;68.00
612;DHT22;293;53.888;11.464;2022-08-21T13:35:15;27.50;68.70
612;DHT22;293;53.888;11.464;2022-08-21T13:37:45;27.60;67.80
612;DHT22;293;53.888;11.464;2022-08-21T13:40:15;27.60;65.80
612;DHT22;293;53.888;11.464;2022-08-21T13:42:46;27.70;66.40
612;DHT22;293;53.888;11.464;2022-08-21T13:45:16;27.70;65.50
612;DHT22;293;53.888;11.464;2022-08-21T13:47:45;27.60;64.90
612;DHT22;293;53.888;11.464;2022-08-21T13:50:14;27.70;64.90
612;DHT22;293;53.888;11.464;2022-08-21T13:52:54;27.70;65.10
612;DHT22;293;53.888;11.464;2022-08-21T13:55:23;27.90;65.80
612;DHT22;293;53.888;11.464;2022-08-21T13:58:01;27.90;62.90
612;DHT22;293;53.888;11.464;2022-08-21T14:00:30;28.00;64.30
612;DHT22;293;53.888;11.464;2022-08-21T14:03:03;28.10;64.80
612;DHT22;293;53.888;11.464;2022-08-21T14:05:33;28.10;64.70
612;DHT22;293;53.888;11.464;2022-08-21T14:08:05;27.80;65.20
612;DHT22;293;53.888;11.464;2022-08-21T14:10:37;27.60;65.20
612;DHT22;293;53.888;11.464;2022-08-21T14:13:26;27.30;65.90
612;DHT22;293;53.888;11.464;2022-08-21T14:15:56;27.10;66.80
612;DHT22;293;53.888;11.464;2022-08-21T14:18:23;26.90;67.20
612;DHT22;293;53.888;11.464;2022-08-21T14:21:02;26.80;67.80
612;DHT22;293;53.888;11.464;2022-08-21T14:23:29;26.70;68.20
612;DHT22;293;53.888;11.464;2022-08-21T14:25:59;26.80;68.40
612;DHT22;293;53.888;11.464;2022-08-21T14:28:30;26.80;68.10
612;DHT22;293;53.888;11.464;2022-08-21T14:30:59;26.70;68.20
612;DHT22;293;53.888;11.464;2022-08-21T14:33:37;26.60;68.50
612;DHT22;293;53.888;11.464;2022-08-21T14:36:04;26.60;70.00
612;DHT22;293;53.888;11.464;2022-08-21T14:38:31;26.70;70.10
612;DHT22;293;53.888;11.464;2022-08-21T14:41:06;26.70;68.20
612;DHT22;293;53.888;11.464;2022-08-21T14:43:35;26.70;67.70
612;DHT22;293;53.888;11.464;2022-08-21T14:46:02;26.70;68.20
612;DHT22;293;53.888;11.464;2022-08-21T14:48:29;26.50;67.90
612;DHT22;293;53.888;11.464;2022-08-21T14:50:56;26.40;70.70
612;DHT22;293;53.888;11.464;2022-08-21T14:53:23;26.30;71.90
612;DHT22;293;53.888;11.464;2022-08-21T14:55:50;26.30;73.50
612;DHT22;293;53.888;11.464;2022-08-21T14:58:37;26.20;73.00
612;DHT22;293;53.888;11.464;2022-08-21T15:01:06;26.20;72.50
612;DHT22;293;53.888;11.464;2022-08-21T15:03:34;26.10;72.20
612;DHT22;293;53.888;11.464;2022-08-21T15:06:02;25.90;72.30
612;DHT22;293;53.888;11.464;2022-08-21T15:08:29;25.80;71.70
612;DHT22;293;53.888;11.464;2022-08-21T15:10:56;25.70;71.40
612;DHT22;293;53.888;11.464;2022-08-21T15:13:23;25.70;72.20
612;DHT22;293;53.888;11.464;2022-08-21T15:15:52;25.60;72.70
612;DHT22;293;53.888;11.464;2022-08-21T15:18:19;25.60;72.90
612;DHT22;293;53.888;11.464;2022-08-21T15:20:46;25.50;73.40
612;DHT22;293;53.888;11.464;2022-08-21T15:23:13;25.30;73.50
612;DHT22;293;53.888;11.464;2022-08-21T15:25:41;25.20;73.50
612;DHT22;293;53.888;11.464;2022-08-21T15:28:09;25.30;73.50
612;DHT22;293;53.888;11.464;2022-08-21T15:30:36;25.30;73.70
612;DHT22;293;53.888;11.464;2022-08-21T15:33:05;25.30;73.70
612;DHT22;293;53.888;11.464;2022-08-21T15:35:33;25.30;73.10
612;DHT22;293;53.888;11.464;2022-08-21T15:38:00;25.30;73.50
612;DHT22;293;53.888;11.464;2022-08-21T15:40:27;25.20;73.90
612;DHT22;293;53.888;11.464;2022-08-21T15:42:58;25.00;74.60
612;DHT22;293;53.888;11.464;2022-08-21T15:45:26;24.90;74.90
612;DHT22;293;53.888;11.464;2022-08-21T15:47:53;24.90;75.60
612;DHT22;293;53.888;11.464;2022-08-21T15:50:23;24.80;75.70
612;DHT22;293;53.888;11.464;2022-08-21T15:52:50;24.70;76.30
612;DHT22;293;53.888;11.464;2022-08-21T15:55:17;24.70;77.10
612;DHT22;293;53.888;11.464;2022-08-21T15:57:46;24.90;77.40
612;DHT22;293;53.888;11.464;2022-08-21T16:00:16;24.90;77.00
612;DHT22;293;53.888;11.464;2022-08-21T16:02:46;24.90;76.20
612;DHT22;293;53.888;11.464;2022-08-21T16:05:14;25.00;75.70
612;DHT22;293;53.888;11.464;2022-08-21T16:07:44;25.00;75.90
612;DHT22;293;53.888;11.464;2022-08-21T16:10:12;25.00;75.90
612;DHT22;293;53.888;11.464;2022-08-21T16:12:44;24.90;75.30
612;DHT22;293;53.888;11.464;2022-08-21T16:15:14;24.80;75.60
612;DHT22;293;53.888;11.464;2022-08-21T16:17:44;24.60;76.60
612;DHT22;293;53.888;11.464;2022-08-21T16:20:16;24.50;77.10
612;DHT22;293;53.888;11.464;2022-08-21T16:22:45;24.50;76.60
612;DHT22;293;53.888;11.464;2022-08-21T16:25:13;24.40;77.00
612;DHT22;293;53.888;11.464;2022-08-21T16:27:41;24.40;77.10
612;DHT22;293;53.888;11.464;2022-08-21T16:30:11;24.30;77.00
612;DHT22;293;53.888;11.464;2022-08-21T16:32:39;24.30;77.10
612;DHT22;293;53.888;11.464;2022-08-21T16:35:07;24.30;77.20